Terminal Aerodrome Forecast
Issued by NWS Tulsa, OK

Home | Current Version | Previous Version | Text Only | Print | Product List | Glossary On
Versions: 1 2 3 4 5 6 7 8 9 10 11 12 13 14 15 16 17 18
000
FTUS44 KTSA 260520
TAFTUL
TAF
KTUL 260520Z 2606/2706 VRB04KT P6SM SCT035
     FM261400 13008KT P6SM SCT250
     FM262100 14011KT P6SM BKN050 PROB30 2621/2624 4SM -TSRA
      BKN040CB
     FM270000 13010KT P6SM VCTS BKN040CB PROB30 2700/2703 3SM TSRA
      BKN025CB=

USA.gov is the U.S. government's official web portal to all federal, state and local government web resources and services.